sensor_id;sensor_type;location;lat;lon;timestamp;P1;durP1;ratioP1;P2;durP2;ratioP2
32214;SDS011;18708;53.124;23.190;2023-04-06T00:01:21;9.25;;;5.82;;
32214;SDS011;18708;53.124;23.190;2023-04-06T00:03:47;9.57;;;5.50;;
32214;SDS011;18708;53.124;23.190;2023-04-06T00:06:12;7.93;;;5.10;;
32214;SDS011;18708;53.124;23.190;2023-04-06T00:08:38;8.65;;;5.45;;
32214;SDS011;18708;53.124;23.190;2023-04-06T00:11:04;8.00;;;5.15;;
32214;SDS011;18708;53.124;23.190;2023-04-06T00:13:30;8.98;;;5.25;;
32214;SDS011;18708;53.124;23.190;2023-04-06T00:15:56;6.50;;;4.45;;
32214;SDS011;18708;53.124;23.190;2023-04-06T00:18:22;6.80;;;4.82;;
32214;SDS011;18708;53.124;23.190;2023-04-06T00:20:48;9.57;;;5.15;;
32214;SDS011;18708;53.124;23.190;2023-04-06T00:23:13;8.45;;;5.10;;
32214;SDS011;18708;53.124;23.190;2023-04-06T00:25:39;6.28;;;4.50;;
32214;SDS011;18708;53.124;23.190;2023-04-06T00:28:05;7.88;;;4.97;;
32214;SDS011;18708;53.124;23.190;2023-04-06T00:30:31;8.55;;;5.50;;
32214;SDS011;18708;53.124;23.190;2023-04-06T00:32:56;9.45;;;5.80;;
32214;SDS011;18708;53.124;23.190;2023-04-06T00:35:22;10.77;;;4.97;;
32214;SDS011;18708;53.124;23.190;2023-04-06T00:37:48;10.40;;;5.45;;
32214;SDS011;18708;53.124;23.190;2023-04-06T00:40:13;10.25;;;5.97;;
32214;SDS011;18708;53.124;23.190;2023-04-06T00:42:40;9.63;;;5.55;;
32214;SDS011;18708;53.124;23.190;2023-04-06T00:45:06;9.98;;;5.88;;
32214;SDS011;18708;53.124;23.190;2023-04-06T00:47:33;8.63;;;5.28;;
32214;SDS011;18708;53.124;23.190;2023-04-06T00:49:59;7.60;;;4.82;;
32214;SDS011;18708;53.124;23.190;2023-04-06T00:52:24;6.00;;;4.55;;
32214;SDS011;18708;53.124;23.190;2023-04-06T00:54:52;10.50;;;5.97;;
32214;SDS011;18708;53.124;23.190;2023-04-06T00:57:18;8.05;;;4.60;;
32214;SDS011;18708;53.124;23.190;2023-04-06T00:59:44;12.32;;;5.10;;
32214;SDS011;18708;53.124;23.190;2023-04-06T01:02:10;9.90;;;4.93;;
32214;SDS011;18708;53.124;23.190;2023-04-06T01:04:36;7.40;;;4.82;;
32214;SDS011;18708;53.124;23.190;2023-04-06T01:07:02;8.85;;;4.78;;
32214;SDS011;18708;53.124;23.190;2023-04-06T01:09:30;8.30;;;5.05;;
32214;SDS011;18708;53.124;23.190;2023-04-06T01:11:56;8.32;;;4.90;;
32214;SDS011;18708;53.124;23.190;2023-04-06T01:14:23;7.20;;;5.05;;
32214;SDS011;18708;53.124;23.190;2023-04-06T01:16:49;8.38;;;5.50;;
32214;SDS011;18708;53.124;23.190;2023-04-06T01:19:15;7.53;;;4.85;;
32214;SDS011;18708;53.124;23.190;2023-04-06T01:21:41;8.20;;;5.07;;
32214;SDS011;18708;53.124;23.190;2023-04-06T01:24:07;7.65;;;5.03;;
32214;SDS011;18708;53.124;23.190;2023-04-06T01:26:34;9.63;;;4.78;;
32214;SDS011;18708;53.124;23.190;2023-04-06T01:29:02;8.48;;;4.78;;
32214;SDS011;18708;53.124;23.190;2023-04-06T01:31:28;7.93;;;4.47;;
32214;SDS011;18708;53.124;23.190;2023-04-06T01:33:53;10.13;;;5.57;;
32214;SDS011;18708;53.124;23.190;2023-04-06T01:36:19;7.35;;;4.38;;
32214;SDS011;18708;53.124;23.190;2023-04-06T01:38:45;7.50;;;4.65;;
32214;SDS011;18708;53.124;23.190;2023-04-06T01:41:11;7.32;;;5.03;;
32214;SDS011;18708;53.124;23.190;2023-04-06T01:43:37;6.65;;;4.72;;
32214;SDS011;18708;53.124;23.190;2023-04-06T01:46:03;7.82;;;4.90;;
32214;SDS011;18708;53.124;23.190;2023-04-06T01:48:29;7.90;;;4.97;;
32214;SDS011;18708;53.124;23.190;2023-04-06T01:50:55;8.25;;;4.88;;
32214;SDS011;18708;53.124;23.190;2023-04-06T01:53:21;8.43;;;4.82;;
32214;SDS011;18708;53.124;23.190;2023-04-06T01:55:47;10.20;;;5.75;;
32214;SDS011;18708;53.124;23.190;2023-04-06T01:58:13;10.90;;;5.40;;
32214;SDS011;18708;53.124;23.190;2023-04-06T02:00:39;8.43;;;4.93;;
32214;SDS011;18708;53.124;23.190;2023-04-06T02:03:05;7.82;;;4.60;;
32214;SDS011;18708;53.124;23.190;2023-04-06T02:05:32;8.38;;;4.65;;
32214;SDS011;18708;53.124;23.190;2023-04-06T02:08:02;9.95;;;4.50;;
32214;SDS011;18708;53.124;23.190;2023-04-06T02:10:30;8.60;;;4.80;;
32214;SDS011;18708;53.124;23.190;2023-04-06T02:12:56;7.75;;;4.63;;
32214;SDS011;18708;53.124;23.190;2023-04-06T02:15:22;6.93;;;4.53;;
32214;SDS011;18708;53.124;23.190;2023-04-06T02:17:47;8.52;;;4.53;;
32214;SDS011;18708;53.124;23.190;2023-04-06T02:20:13;5.72;;;3.92;;
32214;SDS011;18708;53.124;23.190;2023-04-06T02:22:39;5.72;;;3.92;;
32214;SDS011;18708;53.124;23.190;2023-04-06T02:25:05;6.25;;;3.80;;
32214;SDS011;18708;53.124;23.190;2023-04-06T02:27:31;7.20;;;4.60;;
32214;SDS011;18708;53.124;23.190;2023-04-06T02:29:57;6.60;;;3.80;;
32214;SDS011;18708;53.124;23.190;2023-04-06T02:32:22;6.88;;;3.80;;
32214;SDS011;18708;53.124;23.190;2023-04-06T02:34:48;7.05;;;4.35;;
32214;SDS011;18708;53.124;23.190;2023-04-06T02:37:14;6.47;;;4.00;;
32214;SDS011;18708;53.124;23.190;2023-04-06T02:39:40;7.72;;;3.97;;
32214;SDS011;18708;53.124;23.190;2023-04-06T02:42:06;4.88;;;3.58;;
32214;SDS011;18708;53.124;23.190;2023-04-06T02:44:33;9.65;;;4.32;;
32214;SDS011;18708;53.124;23.190;2023-04-06T02:46:59;7.28;;;3.63;;
32214;SDS011;18708;53.124;23.190;2023-04-06T02:49:25;7.70;;;4.18;;
32214;SDS011;18708;53.124;23.190;2023-04-06T02:51:51;5.65;;;3.90;;
32214;SDS011;18708;53.124;23.190;2023-04-06T02:54:16;5.78;;;3.65;;
32214;SDS011;18708;53.124;23.190;2023-04-06T02:56:43;4.93;;;3.55;;
32214;SDS011;18708;53.124;23.190;2023-04-06T02:59:08;8.13;;;4.00;;
32214;SDS011;18708;53.124;23.190;2023-04-06T03:01:35;5.70;;;4.00;;
32214;SDS011;18708;53.124;23.190;2023-04-06T03:04:01;9.07;;;3.67;;
32214;SDS011;18708;53.124;23.190;2023-04-06T03:06:27;5.15;;;3.50;;
32214;SDS011;18708;53.124;23.190;2023-04-06T03:08:52;13.25;;;4.00;;
32214;SDS011;18708;53.124;23.190;2023-04-06T03:11:20;7.97;;;3.80;;
32214;SDS011;18708;53.124;23.190;2023-04-06T03:13:46;6.85;;;4.10;;
32214;SDS011;18708;53.124;23.190;2023-04-06T03:16:14;4.97;;;3.67;;
32214;SDS011;18708;53.124;23.190;2023-04-06T03:18:40;5.93;;;4.40;;
32214;SDS011;18708;53.124;23.190;2023-04-06T03:21:06;6.60;;;4.40;;
32214;SDS011;18708;53.124;23.190;2023-04-06T03:23:31;7.05;;;4.10;;
32214;SDS011;18708;53.124;23.190;2023-04-06T03:25:57;5.93;;;3.70;;
32214;SDS011;18708;53.124;23.190;2023-04-06T03:28:23;8.10;;;3.50;;
32214;SDS011;18708;53.124;23.190;2023-04-06T03:30:48;6.05;;;3.42;;
32214;SDS011;18708;53.124;23.190;2023-04-06T03:33:14;5.70;;;3.70;;
32214;SDS011;18708;53.124;23.190;2023-04-06T03:35:40;5.60;;;3.75;;
32214;SDS011;18708;53.124;23.190;2023-04-06T03:38:06;4.85;;;3.47;;
32214;SDS011;18708;53.124;23.190;2023-04-06T03:40:31;5.10;;;3.40;;
32214;SDS011;18708;53.124;23.190;2023-04-06T03:42:57;5.88;;;4.13;;
32214;SDS011;18708;53.124;23.190;2023-04-06T03:45:23;6.32;;;4.28;;
32214;SDS011;18708;53.124;23.190;2023-04-06T03:47:48;6.10;;;4.05;;
32214;SDS011;18708;53.124;23.190;2023-04-06T03:50:14;7.03;;;3.97;;
32214;SDS011;18708;53.124;23.190;2023-04-06T03:52:40;8.55;;;4.30;;
32214;SDS011;18708;53.124;23.190;2023-04-06T03:55:06;8.55;;;4.13;;
32214;SDS011;18708;53.124;23.190;2023-04-06T03:57:32;6.63;;;4.28;;
32214;SDS011;18708;53.124;23.190;2023-04-06T03:59:58;9.48;;;4.47;;
32214;SDS011;18708;53.124;23.190;2023-04-06T04:02:24;10.40;;;4.30;;
32214;SDS011;18708;53.124;23.190;2023-04-06T04:04:50;7.15;;;4.40;;
32214;SDS011;18708;53.124;23.190;2023-04-06T04:07:16;9.15;;;4.20;;
32214;SDS011;18708;53.124;23.190;2023-04-06T04:09:42;7.25;;;3.63;;
32214;SDS011;18708;53.124;23.190;2023-04-06T04:12:07;6.97;;;4.32;;
32214;SDS011;18708;53.124;23.190;2023-04-06T04:14:33;8.38;;;4.88;;
32214;SDS011;18708;53.124;23.190;2023-04-06T04:16:59;11.77;;;4.50;;
32214;SDS011;18708;53.124;23.190;2023-04-06T04:19:25;10.68;;;5.32;;
32214;SDS011;18708;53.124;23.190;2023-04-06T04:21:50;8.57;;;4.55;;
32214;SDS011;18708;53.124;23.190;2023-04-06T04:24:16;10.07;;;5.55;;
32214;SDS011;18708;53.124;23.190;2023-04-06T04:26:42;6.72;;;4.35;;
32214;SDS011;18708;53.124;23.190;2023-04-06T04:29:07;10.57;;;5.00;;
32214;SDS011;18708;53.124;23.190;2023-04-06T04:31:33;14.23;;;7.18;;
32214;SDS011;18708;53.124;23.190;2023-04-06T04:33:59;17.38;;;7.57;;
32214;SDS011;18708;53.124;23.190;2023-04-06T04:36:25;26.10;;;9.18;;
32214;SDS011;18708;53.124;23.190;2023-04-06T04:38:54;14.60;;;6.03;;
32214;SDS011;18708;53.124;23.190;2023-04-06T04:41:20;10.77;;;5.28;;
32214;SDS011;18708;53.124;23.190;2023-04-06T04:43:45;20.77;;;7.13;;
32214;SDS011;18708;53.124;23.190;2023-04-06T04:46:11;13.57;;;6.47;;
32214;SDS011;18708;53.124;23.190;2023-04-06T04:48:37;19.00;;;6.60;;
32214;SDS011;18708;53.124;23.190;2023-04-06T04:51:03;42.70;;;12.15;;
32214;SDS011;18708;53.124;23.190;2023-04-06T04:53:30;25.08;;;9.32;;
32214;SDS011;18708;53.124;23.190;2023-04-06T04:55:55;17.10;;;7.13;;
32214;SDS011;18708;53.124;23.190;2023-04-06T04:58:21;19.60;;;7.50;;
32214;SDS011;18708;53.124;23.190;2023-04-06T05:00:47;16.67;;;6.75;;
32214;SDS011;18708;53.124;23.190;2023-04-06T05:03:14;21.48;;;8.07;;
32214;SDS011;18708;53.124;23.190;2023-04-06T05:05:46;13.93;;;5.93;;
32214;SDS011;18708;53.124;23.190;2023-04-06T05:08:12;18.35;;;7.28;;
32214;SDS011;18708;53.124;23.190;2023-04-06T05:10:38;29.50;;;10.68;;
32214;SDS011;18708;53.124;23.190;2023-04-06T05:13:04;20.23;;;7.97;;
32214;SDS011;18708;53.124;23.190;2023-04-06T05:15:30;15.32;;;6.93;;
32214;SDS011;18708;53.124;23.190;2023-04-06T05:17:56;13.95;;;7.45;;
32214;SDS011;18708;53.124;23.190;2023-04-06T05:20:22;10.90;;;5.72;;
32214;SDS011;18708;53.124;23.190;2023-04-06T05:22:50;11.23;;;5.70;;
32214;SDS011;18708;53.124;23.190;2023-04-06T05:25:16;6.18;;;4.20;;
32214;SDS011;18708;53.124;23.190;2023-04-06T05:27:41;10.95;;;5.43;;
32214;SDS011;18708;53.124;23.190;2023-04-06T05:30:07;10.25;;;6.00;;
32214;SDS011;18708;53.124;23.190;2023-04-06T05:32:33;14.00;;;7.97;;
32214;SDS011;18708;53.124;23.190;2023-04-06T05:34:59;16.10;;;9.05;;
32214;SDS011;18708;53.124;23.190;2023-04-06T05:37:25;11.30;;;7.10;;
32214;SDS011;18708;53.124;23.190;2023-04-06T05:39:51;10.07;;;5.90;;
32214;SDS011;18708;53.124;23.190;2023-04-06T05:42:16;10.02;;;6.25;;
32214;SDS011;18708;53.124;23.190;2023-04-06T05:44:42;8.90;;;6.05;;
32214;SDS011;18708;53.124;23.190;2023-04-06T05:47:08;10.75;;;7.05;;
32214;SDS011;18708;53.124;23.190;2023-04-06T05:49:34;20.17;;;10.38;;
32214;SDS011;18708;53.124;23.190;2023-04-06T05:51:59;8.05;;;5.57;;
32214;SDS011;18708;53.124;23.190;2023-04-06T05:54:25;8.98;;;5.63;;
32214;SDS011;18708;53.124;23.190;2023-04-06T05:56:51;7.72;;;6.07;;
32214;SDS011;18708;53.124;23.190;2023-04-06T05:59:17;7.35;;;5.30;;
32214;SDS011;18708;53.124;23.190;2023-04-06T06:01:43;13.50;;;7.47;;
32214;SDS011;18708;53.124;23.190;2023-04-06T06:04:08;11.63;;;6.95;;
32214;SDS011;18708;53.124;23.190;2023-04-06T06:06:34;9.82;;;5.45;;
32214;SDS011;18708;53.124;23.190;2023-04-06T06:09:00;9.32;;;6.55;;
32214;SDS011;18708;53.124;23.190;2023-04-06T06:11:28;11.38;;;6.95;;
32214;SDS011;18708;53.124;23.190;2023-04-06T06:13:54;9.75;;;6.63;;
32214;SDS011;18708;53.124;23.190;2023-04-06T06:16:20;13.10;;;7.18;;
32214;SDS011;18708;53.124;23.190;2023-04-06T06:18:47;11.65;;;6.93;;
32214;SDS011;18708;53.124;23.190;2023-04-06T06:21:13;11.73;;;7.68;;
32214;SDS011;18708;53.124;23.190;2023-04-06T06:23:39;11.30;;;6.43;;
32214;SDS011;18708;53.124;23.190;2023-04-06T06:26:07;12.48;;;7.45;;
32214;SDS011;18708;53.124;23.190;2023-04-06T06:28:32;8.18;;;6.22;;
32214;SDS011;18708;53.124;23.190;2023-04-06T06:30:58;11.95;;;8.02;;
32214;SDS011;18708;53.124;23.190;2023-04-06T06:33:24;11.70;;;6.50;;
32214;SDS011;18708;53.124;23.190;2023-04-06T06:35:51;10.57;;;7.35;;
32214;SDS011;18708;53.124;23.190;2023-04-06T06:38:17;11.52;;;7.22;;
32214;SDS011;18708;53.124;23.190;2023-04-06T06:40:43;11.75;;;7.82;;
32214;SDS011;18708;53.124;23.190;2023-04-06T06:43:09;10.80;;;7.50;;
32214;SDS011;18708;53.124;23.190;2023-04-06T06:45:35;11.35;;;7.57;;
32214;SDS011;18708;53.124;23.190;2023-04-06T06:48:01;12.10;;;7.68;;
32214;SDS011;18708;53.124;23.190;2023-04-06T06:50:27;11.93;;;8.07;;
32214;SDS011;18708;53.124;23.190;2023-04-06T06:52:52;10.77;;;7.63;;
32214;SDS011;18708;53.124;23.190;2023-04-06T06:55:18;12.85;;;7.85;;
32214;SDS011;18708;53.124;23.190;2023-04-06T06:57:44;14.05;;;7.63;;
32214;SDS011;18708;53.124;23.190;2023-04-06T07:00:11;12.88;;;8.13;;
32214;SDS011;18708;53.124;23.190;2023-04-06T07:02:38;11.80;;;8.00;;
32214;SDS011;18708;53.124;23.190;2023-04-06T07:05:04;13.38;;;8.57;;
32214;SDS011;18708;53.124;23.190;2023-04-06T07:07:31;15.80;;;8.30;;
32214;SDS011;18708;53.124;23.190;2023-04-06T07:09:58;13.77;;;8.82;;
32214;SDS011;18708;53.124;23.190;2023-04-06T07:12:24;15.45;;;9.45;;
32214;SDS011;18708;53.124;23.190;2023-04-06T07:14:50;15.07;;;9.43;;
32214;SDS011;18708;53.124;23.190;2023-04-06T07:17:16;13.55;;;8.57;;
32214;SDS011;18708;53.124;23.190;2023-04-06T07:19:42;10.77;;;7.18;;
32214;SDS011;18708;53.124;23.190;2023-04-06T07:22:07;14.75;;;9.77;;
32214;SDS011;18708;53.124;23.190;2023-04-06T07:24:33;12.02;;;7.75;;
32214;SDS011;18708;53.124;23.190;2023-04-06T07:26:59;10.85;;;7.55;;
32214;SDS011;18708;53.124;23.190;2023-04-06T07:29:28;14.05;;;8.52;;
32214;SDS011;18708;53.124;23.190;2023-04-06T07:31:54;10.55;;;7.20;;
32214;SDS011;18708;53.124;23.190;2023-04-06T07:34:20;13.68;;;8.05;;
32214;SDS011;18708;53.124;23.190;2023-04-06T07:36:46;16.25;;;8.82;;
32214;SDS011;18708;53.124;23.190;2023-04-06T07:39:12;13.63;;;8.90;;
32214;SDS011;18708;53.124;23.190;2023-04-06T07:41:37;16.40;;;8.95;;
32214;SDS011;18708;53.124;23.190;2023-04-06T07:44:03;13.48;;;8.90;;
32214;SDS011;18708;53.124;23.190;2023-04-06T07:46:29;17.63;;;9.02;;
32214;SDS011;18708;53.124;23.190;2023-04-06T07:48:59;14.43;;;9.00;;
32214;SDS011;18708;53.124;23.190;2023-04-06T07:51:29;24.57;;;10.40;;
32214;SDS011;18708;53.124;23.190;2023-04-06T07:53:55;14.23;;;8.65;;
32214;SDS011;18708;53.124;23.190;2023-04-06T07:56:21;18.25;;;9.18;;
32214;SDS011;18708;53.124;23.190;2023-04-06T07:58:47;13.75;;;8.32;;
32214;SDS011;18708;53.124;23.190;2023-04-06T08:01:13;14.82;;;10.07;;
32214;SDS011;18708;53.124;23.190;2023-04-06T08:03:39;13.80;;;8.95;;
32214;SDS011;18708;53.124;23.190;2023-04-06T08:06:05;14.07;;;8.65;;
32214;SDS011;18708;53.124;23.190;2023-04-06T08:08:31;14.60;;;9.32;;
32214;SDS011;18708;53.124;23.190;2023-04-06T08:10:57;15.60;;;9.30;;
32214;SDS011;18708;53.124;23.190;2023-04-06T08:13:23;16.33;;;9.50;;
32214;SDS011;18708;53.124;23.190;2023-04-06T08:15:48;16.35;;;9.32;;
32214;SDS011;18708;53.124;23.190;2023-04-06T08:18:14;13.27;;;8.70;;
32214;SDS011;18708;53.124;23.190;2023-04-06T08:20:40;12.70;;;8.20;;
32214;SDS011;18708;53.124;23.190;2023-04-06T08:23:06;13.73;;;8.30;;
32214;SDS011;18708;53.124;23.190;2023-04-06T08:25:35;13.27;;;8.73;;
32214;SDS011;18708;53.124;23.190;2023-04-06T08:28:01;15.57;;;8.70;;
32214;SDS011;18708;53.124;23.190;2023-04-06T08:30:27;14.98;;;8.98;;
32214;SDS011;18708;53.124;23.190;2023-04-06T08:32:53;13.70;;;9.15;;
32214;SDS011;18708;53.124;23.190;2023-04-06T08:35:19;12.50;;;8.63;;
32214;SDS011;18708;53.124;23.190;2023-04-06T08:37:45;16.15;;;9.15;;
32214;SDS011;18708;53.124;23.190;2023-04-06T08:40:11;13.20;;;8.25;;
32214;SDS011;18708;53.124;23.190;2023-04-06T08:42:40;17.58;;;9.57;;
32214;SDS011;18708;53.124;23.190;2023-04-06T08:45:14;15.50;;;8.95;;
32214;SDS011;18708;53.124;23.190;2023-04-06T08:47:41;14.45;;;8.32;;
32214;SDS011;18708;53.124;23.190;2023-04-06T08:50:08;15.95;;;9.25;;
32214;SDS011;18708;53.124;23.190;2023-04-06T08:52:36;16.63;;;9.50;;
32214;SDS011;18708;53.124;23.190;2023-04-06T08:55:03;17.30;;;9.88;;
32214;SDS011;18708;53.124;23.190;2023-04-06T08:57:29;20.30;;;10.05;;
32214;SDS011;18708;53.124;23.190;2023-04-06T08:59:56;17.90;;;8.98;;
32214;SDS011;18708;53.124;23.190;2023-04-06T09:02:25;16.52;;;9.15;;
32214;SDS011;18708;53.124;23.190;2023-04-06T09:04:52;16.23;;;8.95;;
32214;SDS011;18708;53.124;23.190;2023-04-06T09:07:18;17.58;;;9.48;;
32214;SDS011;18708;53.124;23.190;2023-04-06T09:09:44;19.90;;;10.18;;
32214;SDS011;18708;53.124;23.190;2023-04-06T09:12:23;16.23;;;9.40;;
32214;SDS011;18708;53.124;23.190;2023-04-06T09:14:50;17.08;;;9.13;;
32214;SDS011;18708;53.124;23.190;2023-04-06T09:19:48;18.65;;;10.10;;
32214;SDS011;18708;53.124;23.190;2023-04-06T09:22:14;16.40;;;9.80;;
32214;SDS011;18708;53.124;23.190;2023-04-06T09:24:44;17.23;;;10.85;;
32214;SDS011;18708;53.124;23.190;2023-04-06T09:27:16;17.45;;;10.35;;
32214;SDS011;18708;53.124;23.190;2023-04-06T09:29:42;18.00;;;9.60;;
32214;SDS011;18708;53.124;23.190;2023-04-06T09:32:08;16.27;;;9.68;;
32214;SDS011;18708;53.124;23.190;2023-04-06T09:34:41;17.60;;;9.25;;
32214;SDS011;18708;53.124;23.190;2023-04-06T09:39:39;19.02;;;10.25;;
32214;SDS011;18708;53.124;23.190;2023-04-06T09:42:05;17.92;;;9.65;;
32214;SDS011;18708;53.124;23.190;2023-04-06T09:44:31;16.10;;;9.98;;
32214;SDS011;18708;53.124;23.190;2023-04-06T09:46:56;20.33;;;11.20;;
32214;SDS011;18708;53.124;23.190;2023-04-06T09:49:22;17.30;;;9.93;;
32214;SDS011;18708;53.124;23.190;2023-04-06T09:52:04;14.88;;;9.68;;
32214;SDS011;18708;53.124;23.190;2023-04-06T09:54:33;14.60;;;9.45;;
32214;SDS011;18708;53.124;23.190;2023-04-06T10:08:20;14.23;;;8.52;;
32214;SDS011;18708;53.124;23.190;2023-04-06T10:10:49;18.02;;;9.60;;
32214;SDS011;18708;53.124;23.190;2023-04-06T10:13:16;16.70;;;9.32;;
32214;SDS011;18708;53.124;23.190;2023-04-06T10:15:44;14.35;;;9.40;;
32214;SDS011;18708;53.124;23.190;2023-04-06T10:18:10;19.20;;;10.68;;
32214;SDS011;18708;53.124;23.190;2023-04-06T10:23:12;16.95;;;9.73;;
32214;SDS011;18708;53.124;23.190;2023-04-06T10:25:57;15.10;;;9.07;;
32214;SDS011;18708;53.124;23.190;2023-04-06T10:28:25;14.73;;;8.77;;
32214;SDS011;18708;53.124;23.190;2023-04-06T10:30:58;16.88;;;9.32;;
32214;SDS011;18708;53.124;23.190;2023-04-06T10:33:25;16.60;;;10.13;;
32214;SDS011;18708;53.124;23.190;2023-04-06T10:35:51;15.73;;;9.27;;
32214;SDS011;18708;53.124;23.190;2023-04-06T10:38:17;14.15;;;9.23;;
32214;SDS011;18708;53.124;23.190;2023-04-06T10:40:47;15.48;;;8.98;;
32214;SDS011;18708;53.124;23.190;2023-04-06T10:43:18;16.08;;;9.02;;
32214;SDS011;18708;53.124;23.190;2023-04-06T10:45:45;14.35;;;9.35;;
32214;SDS011;18708;53.124;23.190;2023-04-06T10:48:22;16.00;;;9.20;;
32214;SDS011;18708;53.124;23.190;2023-04-06T10:50:49;14.55;;;9.05;;
32214;SDS011;18708;53.124;23.190;2023-04-06T10:53:22;20.05;;;12.30;;
32214;SDS011;18708;53.124;23.190;2023-04-06T10:55:52;16.70;;;9.70;;
32214;SDS011;18708;53.124;23.190;2023-04-06T10:58:20;17.40;;;10.30;;
32214;SDS011;18708;53.124;23.190;2023-04-06T11:00:50;15.00;;;9.95;;
32214;SDS011;18708;53.124;23.190;2023-04-06T11:03:16;16.88;;;9.73;;
32214;SDS011;18708;53.124;23.190;2023-04-06T11:05:43;15.98;;;9.68;;
32214;SDS011;18708;53.124;23.190;2023-04-06T11:08:25;18.73;;;9.98;;
32214;SDS011;18708;53.124;23.190;2023-04-06T11:11:07;16.77;;;10.38;;
32214;SDS011;18708;53.124;23.190;2023-04-06T11:13:38;17.85;;;10.38;;
32214;SDS011;18708;53.124;23.190;2023-04-06T11:16:13;18.00;;;9.98;;
32214;SDS011;18708;53.124;23.190;2023-04-06T11:18:50;19.85;;;13.50;;
32214;SDS011;18708;53.124;23.190;2023-04-06T11:21:16;21.10;;;16.52;;
32214;SDS011;18708;53.124;23.190;2023-04-06T11:23:42;23.23;;;15.05;;
32214;SDS011;18708;53.124;23.190;2023-04-06T11:26:11;15.40;;;10.10;;
32214;SDS011;18708;53.124;23.190;2023-04-06T11:28:39;17.55;;;9.93;;
32214;SDS011;18708;53.124;23.190;2023-04-06T11:31:07;15.95;;;9.65;;
32214;SDS011;18708;53.124;23.190;2023-04-06T11:33:36;16.00;;;10.52;;
32214;SDS011;18708;53.124;23.190;2023-04-06T11:36:03;15.32;;;10.60;;
32214;SDS011;18708;53.124;23.190;2023-04-06T11:38:30;17.88;;;10.68;;
32214;SDS011;18708;53.124;23.190;2023-04-06T11:40:56;19.77;;;11.82;;
32214;SDS011;18708;53.124;23.190;2023-04-06T11:43:25;18.20;;;10.63;;
32214;SDS011;18708;53.124;23.190;2023-04-06T11:45:58;15.77;;;10.02;;
32214;SDS011;18708;53.124;23.190;2023-04-06T11:48:29;15.68;;;10.40;;
32214;SDS011;18708;53.124;23.190;2023-04-06T11:50:56;14.50;;;10.07;;
32214;SDS011;18708;53.124;23.190;2023-04-06T11:53:23;14.65;;;9.23;;
32214;SDS011;18708;53.124;23.190;2023-04-06T11:55:49;30.15;;;10.90;;
32214;SDS011;18708;53.124;23.190;2023-04-06T11:58:17;18.42;;;11.02;;
32214;SDS011;18708;53.124;23.190;2023-04-06T12:00:43;19.35;;;12.77;;
32214;SDS011;18708;53.124;23.190;2023-04-06T12:03:11;17.67;;;11.73;;
32214;SDS011;18708;53.124;23.190;2023-04-06T12:05:37;18.42;;;11.57;;
32214;SDS011;18708;53.124;23.190;2023-04-06T12:08:05;19.75;;;11.07;;
32214;SDS011;18708;53.124;23.190;2023-04-06T12:10:31;18.25;;;10.40;;
32214;SDS011;18708;53.124;23.190;2023-04-06T12:12:59;16.40;;;9.93;;
32214;SDS011;18708;53.124;23.190;2023-04-06T12:15:25;17.75;;;10.77;;
32214;SDS011;18708;53.124;23.190;2023-04-06T12:17:50;18.33;;;10.95;;
32214;SDS011;18708;53.124;23.190;2023-04-06T12:20:16;14.73;;;10.40;;
32214;SDS011;18708;53.124;23.190;2023-04-06T12:22:44;17.40;;;10.65;;
32214;SDS011;18708;53.124;23.190;2023-04-06T12:25:10;19.45;;;11.68;;
32214;SDS011;18708;53.124;23.190;2023-04-06T12:27:36;18.70;;;10.43;;
32214;SDS011;18708;53.124;23.190;2023-04-06T12:30:02;18.23;;;10.98;;
32214;SDS011;18708;53.124;23.190;2023-04-06T12:32:31;18.00;;;11.65;;
32214;SDS011;18708;53.124;23.190;2023-04-06T12:34:56;16.50;;;11.40;;
32214;SDS011;18708;53.124;23.190;2023-04-06T12:37:22;20.02;;;11.63;;
32214;SDS011;18708;53.124;23.190;2023-04-06T12:39:48;18.38;;;12.25;;
32214;SDS011;18708;53.124;23.190;2023-04-06T12:42:14;20.77;;;12.32;;
32214;SDS011;18708;53.124;23.190;2023-04-06T12:44:39;20.75;;;13.77;;
32214;SDS011;18708;53.124;23.190;2023-04-06T12:47:07;25.42;;;13.95;;
32214;SDS011;18708;53.124;23.190;2023-04-06T12:49:33;19.45;;;13.18;;
32214;SDS011;18708;53.124;23.190;2023-04-06T12:51:58;20.85;;;12.73;;
32214;SDS011;18708;53.124;23.190;2023-04-06T12:54:24;19.85;;;12.35;;
32214;SDS011;18708;53.124;23.190;2023-04-06T12:56:51;22.98;;;13.70;;
32214;SDS011;18708;53.124;23.190;2023-04-06T12:59:17;20.27;;;13.18;;
32214;SDS011;18708;53.124;23.190;2023-04-06T13:01:43;20.48;;;12.50;;
32214;SDS011;18708;53.124;23.190;2023-04-06T13:04:09;22.83;;;13.07;;
32214;SDS011;18708;53.124;23.190;2023-04-06T13:06:35;20.33;;;13.68;;
32214;SDS011;18708;53.124;23.190;2023-04-06T13:09:00;21.50;;;13.52;;
32214;SDS011;18708;53.124;23.190;2023-04-06T13:11:26;19.65;;;13.10;;
32214;SDS011;18708;53.124;23.190;2023-04-06T13:13:52;22.88;;;14.07;;
32214;SDS011;18708;53.124;23.190;2023-04-06T13:16:18;22.02;;;13.52;;
32214;SDS011;18708;53.124;23.190;2023-04-06T13:18:43;25.15;;;15.38;;
32214;SDS011;18708;53.124;23.190;2023-04-06T13:21:09;26.08;;;15.00;;
32214;SDS011;18708;53.124;23.190;2023-04-06T13:23:40;22.08;;;14.75;;
32214;SDS011;18708;53.124;23.190;2023-04-06T13:26:06;21.13;;;13.73;;
32214;SDS011;18708;53.124;23.190;2023-04-06T13:28:33;23.75;;;15.88;;
32214;SDS011;18708;53.124;23.190;2023-04-06T13:31:00;22.38;;;14.15;;
32214;SDS011;18708;53.124;23.190;2023-04-06T13:33:27;24.30;;;16.20;;
32214;SDS011;18708;53.124;23.190;2023-04-06T13:35:53;28.00;;;14.85;;
32214;SDS011;18708;53.124;23.190;2023-04-06T13:38:19;25.85;;;16.38;;
32214;SDS011;18708;53.124;23.190;2023-04-06T13:40:45;25.35;;;16.17;;
32214;SDS011;18708;53.124;23.190;2023-04-06T13:43:11;24.27;;;16.23;;
32214;SDS011;18708;53.124;23.190;2023-04-06T13:45:37;28.17;;;16.45;;
32214;SDS011;18708;53.124;23.190;2023-04-06T13:48:03;29.15;;;16.85;;
32214;SDS011;18708;53.124;23.190;2023-04-06T13:50:29;25.65;;;17.17;;
32214;SDS011;18708;53.124;23.190;2023-04-06T13:52:55;23.50;;;15.52;;
32214;SDS011;18708;53.124;23.190;2023-04-06T13:55:21;32.08;;;16.92;;
32214;SDS011;18708;53.124;23.190;2023-04-06T13:57:49;24.73;;;15.90;;
32214;SDS011;18708;53.124;23.190;2023-04-06T14:00:15;23.92;;;16.15;;
32214;SDS011;18708;53.124;23.190;2023-04-06T14:02:41;29.50;;;17.48;;
32214;SDS011;18708;53.124;23.190;2023-04-06T14:05:07;28.23;;;18.92;;
32214;SDS011;18708;53.124;23.190;2023-04-06T14:07:33;27.55;;;17.17;;
32214;SDS011;18708;53.124;23.190;2023-04-06T14:09:59;33.00;;;20.05;;
32214;SDS011;18708;53.124;23.190;2023-04-06T14:12:25;39.30;;;21.90;;
32214;SDS011;18708;53.124;23.190;2023-04-06T14:14:51;32.42;;;18.63;;
32214;SDS011;18708;53.124;23.190;2023-04-06T14:17:17;28.70;;;19.02;;
32214;SDS011;18708;53.124;23.190;2023-04-06T14:19:43;30.55;;;19.77;;
32214;SDS011;18708;53.124;23.190;2023-04-06T14:22:09;28.13;;;18.90;;
32214;SDS011;18708;53.124;23.190;2023-04-06T14:24:35;27.42;;;16.85;;
32214;SDS011;18708;53.124;23.190;2023-04-06T14:27:01;28.80;;;17.58;;
32214;SDS011;18708;53.124;23.190;2023-04-06T14:29:27;46.65;;;25.85;;
32214;SDS011;18708;53.124;23.190;2023-04-06T14:31:53;45.13;;;26.60;;
32214;SDS011;18708;53.124;23.190;2023-04-06T14:34:25;35.15;;;20.33;;
32214;SDS011;18708;53.124;23.190;2023-04-06T14:36:51;32.75;;;20.13;;